Aérodrome :
LOGIN :

S'inscrire | Disclaimer

   EN    FR    IT 

 










Légende :    VFR   VFR Marginal   IFR   IFR Intensif   IFR Très Intensif
Visi : 
Plafond : 
>= 8 km
>= 3000ft
5 à 8 km
1000 à 3000 ft
1500m à 5 km
500 à 1000 ft
800 à 1500m
200 à 500 ft
< 800m
< 200 ft
Symboles :   Orages  Brouillard  Fortes neiges  Fortes précipitations  Vent > 20 kt
SIGMETs :   Divers  Orages  Givrage  Turbulence  Onde Orograph.  Cendres Volcan.






- Altitude de l'aérodrome : 489 ft
- Code IATA : GDN


EPGD - Gdansk

DERNIER METAR :
  • 250330Z 26004KT 9999 SCT008 BKN010 BKN033 09/09 Q1020

METARs EXPIRÉS :
  • 250300Z 26005KT 9999 SCT008 BKN017 09/09 Q1020
  • 250230Z 27005KT 9999 FEW009 BKN016 BKN018 09/09 Q1019
  • 250200Z 28004KT 9999 FEW006 BKN012 09/09 Q1019
  • 250130Z 28007KT 9000 -SHRA SCT006 BKN009TCU 09/09 Q1019
  • 250100Z 25005KT 9999 FEW003 BKN009 SCT011TCU 09/09 Q1019

TAF TAF EPGD
Valide du 25 à 00h jusqu'au 26 à 00h UTC


242330Z 2500/2524 VRB04KT 9999 SCT035
TEMPO 2500/2508 4000 SHRA BKN007 BKN014CB
TEMPO 2508/2516 4000 SHRA BKN025CB
BECMG 2509/2511 36010KT
PROB40
TEMPO 2509/2514 03020G30KT 2000 TSRA
PROB40
TEMPO 2516/2520 3000 BR BKN005
BECMG 2520/2524 1500 BR BKN003



MET'MAP, la Météo Aéronautique d'un coup d'oeil ! - Copyright ORBIFLY Décembre 2007 - Disclaimer

ORBIFLY MET'MAP TEAM :

Programmation & Développement : Alexandra Zaïnal
Sur une idée originale de : Baudouin d'Aumeries
Assistance à la programmation : Marc-Olivier Méhu
Soutien technique & logistique : Manuel Goepfert

Contact : metmap@orbifly.com




SOURCES & CREDITS :

   NOAA